createdAt,value
2022-10-22T00:02:09.374Z,3.00
2022-10-22T00:04:58.351Z,2.75
2022-10-22T00:07:46.216Z,2.95
2022-10-22T00:10:33.889Z,2.97
2022-10-22T00:13:21.654Z,2.77
2022-10-22T00:16:09.313Z,2.70
2022-10-22T00:18:56.549Z,2.70
2022-10-22T00:21:45.737Z,2.80
2022-10-22T00:24:33.395Z,2.85
2022-10-22T00:27:20.622Z,2.70
2022-10-22T00:30:09.187Z,2.70
2022-10-22T00:32:56.667Z,2.80
2022-10-22T00:35:45.349Z,2.67
2022-10-22T00:38:34.558Z,2.75
2022-10-22T00:41:22.071Z,2.90
2022-10-22T00:44:09.530Z,2.63
2022-10-22T00:46:57.088Z,2.90
2022-10-22T00:49:45.980Z,3.00
2022-10-22T00:52:34.046Z,3.20
2022-10-22T00:55:25.331Z,2.37
2022-10-22T00:58:14.357Z,2.50
2022-10-22T01:01:02.239Z,2.78
2022-10-22T01:03:49.913Z,2.45
2022-10-22T01:06:37.053Z,2.67
2022-10-22T01:09:34.764Z,3.10
2022-10-22T01:12:33.767Z,3.08
2022-10-22T01:15:26.407Z,2.50
2022-10-22T01:18:21.588Z,2.25
2022-10-22T01:21:16.957Z,2.30
2022-10-22T01:24:29.036Z,2.30
2022-10-22T01:27:40.058Z,2.13
2022-10-22T01:30:29.097Z,2.53
2022-10-22T01:33:20.937Z,2.70
2022-10-22T01:36:09.574Z,2.67
2022-10-22T01:38:58.173Z,2.53
2022-10-22T01:41:46.352Z,3.30
2022-10-22T01:47:39.076Z,2.90
2022-10-22T01:50:45.981Z,3.47
2022-10-22T01:53:42.054Z,2.83
2022-10-22T01:56:45.827Z,2.97
2022-10-22T01:59:45.971Z,2.75
2022-10-22T02:02:42.461Z,3.15
2022-10-22T02:05:36.769Z,3.40
2022-10-22T02:08:27.802Z,3.00
2022-10-22T02:11:16.817Z,3.00
2022-10-22T02:14:06.654Z,2.88
2022-10-22T02:16:54.238Z,2.80
2022-10-22T02:19:49.089Z,3.17
2022-10-22T02:22:37.054Z,3.30
2022-10-22T02:25:29.075Z,2.72
2022-10-22T02:28:21.160Z,2.63
2022-10-22T02:31:17.157Z,3.38
2022-10-22T02:34:10.287Z,3.35
2022-10-22T02:37:01.346Z,3.00
2022-10-22T02:39:50.039Z,2.25
2022-10-22T02:42:39.557Z,3.03
2022-10-22T02:45:27.213Z,3.00
2022-10-22T02:48:14.338Z,2.92
2022-10-22T02:51:02.133Z,2.90
2022-10-22T02:53:50.874Z,3.10
2022-10-22T02:56:38.254Z,3.80
2022-10-22T02:59:25.569Z,3.80
2022-10-22T03:02:13.056Z,3.40
2022-10-22T03:05:01.986Z,3.53
2022-10-22T03:07:49.147Z,3.22
2022-10-22T03:10:38.388Z,3.95
2022-10-22T03:13:25.923Z,3.42
2022-10-22T03:16:13.436Z,3.20
2022-10-22T03:19:02.031Z,3.20
2022-10-22T03:21:51.694Z,3.80
2022-10-22T03:24:42.923Z,3.30
2022-10-22T03:27:32.077Z,3.25
2022-10-22T03:30:20.065Z,3.05
2022-10-22T03:33:07.734Z,3.27
2022-10-22T03:35:55.488Z,3.08
2022-10-22T03:38:43.505Z,4.30
2022-10-22T03:41:31.051Z,3.95
2022-10-22T03:44:20.090Z,3.45
2022-10-22T03:47:08.037Z,3.97
2022-10-22T03:49:55.690Z,3.92
2022-10-22T03:52:42.833Z,3.78
2022-10-22T03:55:30.314Z,3.50
2022-10-22T03:58:18.357Z,3.42
2022-10-22T04:01:08.339Z,3.63
2022-10-22T04:03:57.142Z,3.33
2022-10-22T04:06:44.487Z,3.38
2022-10-22T04:09:32.535Z,3.50
2022-10-22T04:12:20.434Z,3.47
2022-10-22T04:15:10.760Z,3.80
2022-10-22T04:17:59.438Z,3.55
2022-10-22T04:20:46.787Z,3.92
2022-10-22T04:23:34.574Z,4.28
2022-10-22T04:26:22.608Z,4.05
2022-10-22T04:29:13.443Z,4.10
2022-10-22T04:32:02.978Z,4.20
2022-10-22T04:34:51.577Z,3.47
2022-10-22T04:37:39.546Z,3.50
2022-10-22T04:40:27.587Z,4.25
2022-10-22T04:43:15.059Z,4.30
2022-10-22T04:46:02.450Z,4.30
2022-10-22T04:48:49.787Z,4.65
2022-10-22T04:51:38.793Z,4.32
2022-10-22T04:54:29.081Z,4.65
2022-10-22T04:57:19.707Z,4.70
2022-10-22T05:00:08.268Z,4.80
2022-10-22T05:02:55.513Z,4.38
2022-10-22T05:05:43.220Z,5.25
2022-10-22T05:08:31.962Z,5.50
2022-10-22T05:11:21.656Z,4.23
2022-10-22T05:14:09.687Z,4.68
2022-10-22T05:16:57.236Z,4.82
2022-10-22T05:19:44.913Z,5.70
2022-10-22T05:22:32.546Z,5.82
2022-10-22T05:25:21.007Z,5.00
2022-10-22T05:28:08.324Z,5.05
2022-10-22T05:30:57.017Z,5.20
2022-10-22T05:33:45.595Z,5.10
2022-10-22T05:36:32.988Z,4.90
2022-10-22T05:39:20.257Z,5.13
2022-10-22T05:42:08.781Z,4.85
2022-10-22T05:44:56.280Z,4.95
2022-10-22T05:47:44.034Z,4.63
2022-10-22T05:50:31.408Z,4.45
2022-10-22T05:53:19.411Z,5.33
2022-10-22T05:56:09.975Z,4.97
2022-10-22T05:58:59.016Z,4.97
2022-10-22T06:01:46.617Z,4.53
2022-10-22T06:04:33.967Z,4.63
2022-10-22T06:07:21.290Z,4.23
2022-10-22T06:10:15.529Z,4.78
2022-10-22T06:13:03.256Z,4.47
2022-10-22T06:15:53.509Z,4.70
2022-10-22T06:18:41.132Z,4.40
2022-10-22T06:21:28.619Z,4.17
2022-10-22T06:24:16.445Z,4.60
2022-10-22T06:27:04.377Z,4.45
2022-10-22T06:29:51.642Z,4.25
2022-10-22T06:32:41.580Z,4.40
2022-10-22T06:35:29.215Z,4.37
2022-10-22T06:38:17.850Z,4.90
2022-10-22T06:41:07.147Z,5.07
2022-10-22T06:43:55.867Z,5.22
2022-10-22T06:46:43.696Z,5.35
2022-10-22T06:49:32.805Z,5.97
2022-10-22T06:52:19.773Z,5.53
2022-10-22T06:55:07.691Z,6.13
2022-10-22T06:57:56.736Z,5.85
2022-10-22T07:00:44.377Z,5.50
2022-10-22T07:03:31.727Z,5.20
2022-10-22T07:06:21.399Z,5.32
2022-10-22T07:09:09.188Z,4.82
2022-10-22T07:11:56.766Z,4.95
2022-10-22T07:14:44.794Z,4.80
2022-10-22T07:17:32.363Z,5.40
2022-10-22T07:20:21.565Z,5.32
2022-10-22T07:23:09.803Z,5.75
2022-10-22T07:25:57.627Z,4.75
2022-10-22T07:28:44.934Z,5.43
2022-10-22T07:31:32.757Z,5.27
2022-10-22T07:37:12.707Z,4.95
2022-10-22T07:40:03.843Z,4.72
2022-10-22T07:42:51.365Z,4.72
2022-10-22T07:45:39.022Z,4.77
2022-10-22T07:48:26.470Z,5.00
2022-10-22T07:51:14.438Z,5.50
2022-10-22T07:54:01.719Z,4.82
2022-10-22T07:56:50.449Z,4.80
2022-10-22T07:59:37.774Z,4.63
2022-10-22T08:02:25.000Z,4.35
2022-10-22T08:05:13.345Z,4.72
2022-10-22T08:08:01.081Z,4.78
2022-10-22T08:10:49.608Z,4.57
2022-10-22T08:13:42.741Z,4.33
2022-10-22T08:16:32.797Z,4.60
2022-10-22T08:19:21.505Z,4.35
2022-10-22T08:22:08.541Z,4.35
2022-10-22T08:24:56.467Z,4.43
2022-10-22T08:27:43.970Z,3.37
2022-10-22T08:30:34.119Z,3.70
2022-10-22T08:33:21.311Z,3.80
2022-10-22T08:36:09.711Z,3.60
2022-10-22T08:38:57.100Z,4.07
2022-10-22T08:41:55.524Z,3.47
2022-10-22T08:44:58.592Z,3.90
2022-10-22T08:48:03.216Z,3.33
2022-10-22T08:50:53.826Z,3.38
2022-10-22T08:53:50.443Z,2.97
2022-10-22T08:56:40.068Z,2.50
2022-10-22T08:59:34.269Z,2.75
2022-10-22T09:02:35.363Z,2.60
2022-10-22T09:05:37.354Z,2.70
2022-10-22T09:08:24.896Z,2.53
2022-10-22T09:11:30.139Z,2.20
2022-10-22T09:14:20.007Z,2.30
2022-10-22T09:17:17.417Z,2.58
2022-10-22T09:20:13.450Z,2.08
2022-10-22T09:23:16.268Z,2.60
2022-10-22T09:26:07.958Z,2.10
2022-10-22T09:28:55.237Z,2.10
2022-10-22T09:31:43.044Z,1.98
2022-10-22T09:34:31.461Z,2.17
2022-10-22T09:37:20.830Z,2.10
2022-10-22T09:40:16.243Z,1.70
2022-10-22T09:43:03.279Z,1.70
2022-10-22T09:45:58.358Z,1.92
2022-10-22T09:48:50.503Z,1.95
2022-10-22T09:51:43.147Z,2.10
2022-10-22T09:54:40.411Z,1.97
2022-10-22T09:57:30.637Z,2.30
2022-10-22T10:00:21.111Z,2.35
2022-10-22T10:03:16.966Z,2.38
2022-10-22T10:06:07.318Z,2.40
2022-10-22T10:08:54.925Z,2.23
2022-10-22T10:11:47.295Z,1.90
2022-10-22T10:14:43.863Z,2.00
2022-10-22T10:17:43.108Z,1.92
2022-10-22T10:20:41.298Z,2.08
2022-10-22T10:23:33.887Z,2.30
2022-10-22T10:26:28.456Z,2.40
2022-10-22T10:29:27.325Z,2.63
2022-10-22T10:32:31.816Z,1.90
2022-10-22T10:35:25.765Z,1.77
2022-10-22T10:38:31.489Z,1.70
2022-10-22T10:41:28.452Z,1.60
2022-10-22T10:44:43.344Z,2.00
2022-10-22T10:48:02.520Z,1.50
2022-10-22T10:50:57.269Z,1.40
2022-10-22T10:54:04.204Z,1.40
2022-10-22T10:56:56.927Z,1.73
2022-10-22T10:59:55.879Z,1.42
2022-10-22T11:03:23.745Z,1.40
2022-10-22T11:06:13.519Z,1.40
2022-10-22T11:09:04.715Z,1.50
2022-10-22T11:11:55.392Z,1.80
2022-10-22T11:14:58.327Z,1.45
2022-10-22T11:17:48.887Z,1.30
2022-10-22T11:20:47.910Z,1.20
2022-10-22T11:23:42.186Z,1.10
2022-10-22T11:26:38.975Z,1.30
2022-10-22T11:29:32.935Z,1.40
2022-10-22T11:32:23.739Z,1.55
2022-10-22T11:35:17.053Z,1.70
2022-10-22T11:38:09.761Z,1.63
2022-10-22T11:41:00.308Z,1.52
2022-10-22T11:43:59.230Z,1.42
2022-10-22T11:46:48.346Z,1.80
2022-10-22T11:49:44.770Z,1.80
2022-10-22T11:52:49.219Z,1.63
2022-10-22T11:55:48.442Z,1.80
2022-10-22T11:58:44.030Z,2.10
2022-10-22T12:01:43.279Z,1.60
2022-10-22T12:04:42.645Z,1.88
2022-10-22T12:07:35.893Z,1.50
2022-10-22T12:10:28.547Z,1.80
2022-10-22T12:13:23.679Z,1.67
2022-10-22T12:16:14.867Z,1.83
2022-10-22T12:19:06.640Z,1.75
2022-10-22T12:21:56.560Z,1.33
2022-10-22T12:24:47.290Z,1.25
2022-10-22T12:27:37.633Z,1.33
2022-10-22T12:30:28.175Z,1.40
2022-10-22T12:33:22.304Z,1.50
2022-10-22T12:36:18.198Z,1.50
2022-10-22T12:39:13.474Z,1.35
2022-10-22T12:42:01.077Z,1.52
2022-10-22T12:44:48.287Z,1.80
2022-10-22T12:47:36.890Z,1.40
2022-10-22T12:50:32.860Z,1.57
2022-10-22T12:53:25.467Z,1.52
2022-10-22T12:56:15.616Z,1.20
2022-10-22T12:59:06.489Z,1.38
2022-10-22T13:01:55.058Z,1.95
2022-10-22T13:04:43.968Z,1.50
2022-10-22T13:07:40.082Z,1.75
2022-10-22T13:10:32.769Z,1.73
2022-10-22T13:13:45.528Z,1.40
2022-10-22T13:16:33.296Z,1.60
2022-10-22T13:19:44.530Z,1.63
2022-10-22T13:22:35.101Z,1.63
2022-10-22T13:25:27.239Z,1.73
2022-10-22T13:28:22.183Z,1.90
2022-10-22T13:31:12.518Z,1.15
2022-10-22T13:34:06.621Z,1.30
2022-10-22T13:36:58.988Z,1.27
2022-10-22T13:39:46.499Z,1.48
2022-10-22T13:42:34.133Z,1.00
2022-10-22T13:45:21.905Z,1.00
2022-10-22T13:48:14.129Z,1.00
2022-10-22T13:51:01.828Z,1.00
2022-10-22T13:53:52.668Z,1.23
2022-10-22T13:56:40.129Z,1.13
2022-10-22T13:59:27.354Z,1.33
2022-10-22T14:02:16.639Z,1.50
2022-10-22T14:05:05.268Z,1.20
2022-10-22T14:07:53.989Z,1.27
2022-10-22T14:10:42.870Z,0.95
2022-10-22T14:13:30.152Z,1.08
2022-10-22T14:16:21.374Z,0.83
2022-10-22T14:19:11.633Z,1.60
2022-10-22T14:21:58.951Z,1.00
2022-10-22T14:24:47.326Z,1.00
2022-10-22T14:27:36.067Z,1.40
2022-10-22T14:30:26.156Z,1.00
2022-10-22T14:33:17.228Z,1.25
2022-10-22T14:36:04.742Z,1.10
2022-10-22T14:38:52.300Z,1.65
2022-10-22T14:41:40.036Z,1.10
2022-10-22T14:44:28.877Z,1.00
2022-10-22T14:47:16.368Z,1.13
2022-10-22T14:50:04.024Z,1.45
2022-10-22T14:52:52.336Z,1.30
2022-10-22T14:55:40.476Z,1.13
2022-10-22T14:58:28.067Z,1.03
2022-10-22T15:01:16.587Z,1.00
2022-10-22T15:04:04.489Z,1.25
2022-10-22T15:06:56.348Z,1.08
2022-10-22T15:09:43.593Z,1.40
2022-10-22T15:12:31.281Z,1.30
2022-10-22T15:15:21.981Z,1.20
2022-10-22T15:18:12.082Z,1.20
2022-10-22T15:21:01.379Z,1.20
2022-10-22T15:23:49.474Z,1.08
2022-10-22T15:26:36.544Z,1.27
2022-10-22T15:29:24.248Z,1.33
2022-10-22T15:32:11.786Z,1.02
2022-10-22T15:35:00.877Z,1.20
2022-10-22T15:37:52.380Z,1.35
2022-10-22T15:40:39.642Z,1.17
2022-10-22T15:43:26.952Z,2.13
2022-10-22T15:46:16.552Z,1.58
2022-10-22T15:49:03.985Z,1.63
2022-10-22T15:51:53.088Z,1.90
2022-10-22T15:54:43.977Z,1.67
2022-10-22T15:57:31.624Z,1.70
2022-10-22T16:00:19.517Z,1.27
2022-10-22T16:03:07.897Z,1.20
2022-10-22T16:05:57.394Z,1.58
2022-10-22T16:08:46.267Z,1.30
2022-10-22T16:11:33.952Z,1.48
2022-10-22T16:14:24.260Z,1.50
2022-10-22T16:17:11.645Z,1.50
2022-10-22T16:19:59.333Z,1.60
2022-10-22T16:22:50.046Z,2.93
2022-10-22T16:25:40.802Z,1.42
2022-10-22T16:28:28.787Z,1.23
2022-10-22T16:31:19.621Z,1.50
2022-10-22T16:34:06.715Z,1.90
2022-10-22T16:36:56.623Z,1.67
2022-10-22T16:39:43.903Z,1.23
2022-10-22T16:42:32.895Z,1.27
2022-10-22T16:45:21.107Z,1.30
2022-10-22T16:48:08.612Z,1.60
2022-10-22T16:50:55.797Z,1.13
2022-10-22T16:53:43.794Z,1.20
2022-10-22T16:56:31.023Z,1.10
2022-10-22T16:59:19.982Z,1.10
2022-10-22T17:02:07.490Z,1.33
2022-10-22T17:04:54.911Z,1.00
2022-10-22T17:07:42.399Z,1.80
2022-10-22T17:10:29.607Z,4.35
2022-10-22T17:13:17.021Z,3.40
2022-10-22T17:16:08.290Z,3.30
2022-10-22T17:18:56.651Z,1.80
2022-10-22T17:21:44.673Z,2.33
2022-10-22T17:24:32.235Z,1.95
2022-10-22T17:27:19.464Z,2.20
2022-10-22T17:30:08.919Z,2.25
2022-10-22T17:32:57.874Z,2.33
2022-10-22T17:35:45.257Z,3.25
2022-10-22T17:38:32.910Z,3.67
2022-10-22T17:41:22.234Z,1.88
2022-10-22T17:44:10.302Z,1.30
2022-10-22T17:47:00.334Z,0.77
2022-10-22T17:49:49.028Z,1.10
2022-10-22T17:52:37.246Z,0.85
2022-10-22T17:55:24.649Z,1.52
2022-10-22T17:58:11.809Z,1.63
2022-10-22T18:00:59.969Z,1.83
2022-10-22T18:03:47.313Z,2.60
2022-10-22T18:06:36.881Z,2.25
2022-10-22T18:09:24.615Z,2.63
2022-10-22T18:12:14.099Z,2.83
2022-10-22T18:15:01.956Z,2.33
2022-10-22T18:17:50.519Z,2.25
2022-10-22T18:20:38.044Z,1.83
2022-10-22T18:23:27.067Z,2.08
2022-10-22T18:26:15.584Z,2.97
2022-10-22T18:29:03.199Z,1.80
2022-10-22T18:31:51.185Z,1.52
2022-10-22T18:34:38.732Z,1.77
2022-10-22T18:37:26.275Z,1.70
2022-10-22T18:40:15.319Z,1.40
2022-10-22T18:43:02.992Z,1.57
2022-10-22T18:45:50.391Z,1.67
2022-10-22T18:48:37.755Z,2.00
2022-10-22T18:51:26.347Z,2.33
2022-10-22T18:54:25.584Z,2.35
2022-10-22T18:57:14.167Z,2.43
2022-10-22T19:00:01.560Z,2.40
2022-10-22T19:02:49.169Z,2.42
2022-10-22T19:05:36.685Z,2.05
2022-10-22T19:08:24.769Z,2.53
2022-10-22T19:11:15.301Z,2.93
2022-10-22T19:14:04.438Z,2.92
2022-10-22T19:16:52.228Z,3.10
2022-10-22T19:19:39.232Z,3.20
2022-10-22T19:22:27.098Z,4.47
2022-10-22T19:25:14.190Z,3.23
2022-10-22T19:28:01.335Z,3.35
2022-10-22T19:30:49.927Z,2.80
2022-10-22T19:33:38.991Z,3.00
2022-10-22T19:36:27.941Z,2.95
2022-10-22T19:39:17.513Z,3.03
2022-10-22T19:42:05.336Z,2.70
2022-10-22T19:44:53.016Z,2.55
2022-10-22T19:47:42.312Z,3.00
2022-10-22T19:50:29.639Z,3.78
2022-10-22T19:53:17.075Z,3.97
2022-10-22T19:56:07.030Z,3.60
2022-10-22T19:58:54.637Z,3.13
2022-10-22T20:01:42.353Z,3.78
2022-10-22T20:04:31.987Z,4.05
2022-10-22T20:07:19.327Z,4.07
2022-10-22T20:10:07.585Z,3.20
2022-10-22T20:12:54.699Z,4.50
2022-10-22T20:15:42.362Z,3.92
2022-10-22T20:18:30.110Z,4.22
2022-10-22T20:21:20.240Z,4.00
2022-10-22T20:24:07.700Z,4.03
2022-10-22T20:26:55.515Z,3.92
2022-10-22T20:29:42.835Z,3.33
2022-10-22T20:32:29.977Z,3.45
2022-10-22T20:35:17.665Z,3.93
2022-10-22T20:38:06.920Z,3.50
2022-10-22T20:41:03.660Z,3.25
2022-10-22T20:43:53.028Z,2.78
2022-10-22T20:46:40.533Z,2.80
2022-10-22T20:49:27.680Z,3.00
2022-10-22T20:52:15.309Z,3.55
2022-10-22T20:55:04.051Z,3.90
2022-10-22T20:57:51.580Z,3.75
2022-10-22T21:00:39.899Z,4.65
2022-10-22T21:03:27.533Z,4.17
2022-10-22T21:06:14.662Z,4.00
2022-10-22T21:09:01.983Z,4.57
2022-10-22T21:11:51.233Z,4.90
2022-10-22T21:14:38.951Z,4.53
2022-10-22T21:17:26.628Z,4.00
2022-10-22T21:20:13.737Z,4.07
2022-10-22T21:23:01.109Z,4.68
2022-10-22T21:25:55.000Z,4.50
2022-10-22T21:28:44.898Z,4.72
2022-10-22T21:31:32.707Z,4.30
2022-10-22T21:34:20.096Z,3.65
2022-10-22T21:37:07.904Z,3.85
2022-10-22T21:39:55.387Z,3.58
2022-10-22T21:42:43.215Z,3.50
2022-10-22T21:45:32.035Z,3.13
2022-10-22T21:48:19.421Z,3.67
2022-10-22T21:51:08.521Z,3.45
2022-10-22T21:53:56.305Z,2.95
2022-10-22T21:56:43.168Z,3.70
2022-10-22T21:59:32.486Z,3.30
2022-10-22T22:05:13.640Z,3.38
2022-10-22T22:08:01.140Z,3.50
2022-10-22T22:10:48.530Z,3.50
2022-10-22T22:13:36.474Z,3.70
2022-10-22T22:16:28.441Z,3.38
2022-10-22T22:19:17.849Z,3.40
2022-10-22T22:22:05.933Z,2.97
2022-10-22T22:24:53.456Z,3.00
2022-10-22T22:27:40.964Z,3.00
2022-10-22T22:30:29.909Z,2.80
2022-10-22T22:33:18.757Z,4.07
2022-10-22T22:36:08.739Z,2.92
2022-10-22T22:38:56.922Z,3.20
2022-10-22T22:41:45.112Z,3.17
2022-10-22T22:44:32.542Z,3.20
2022-10-22T22:47:20.357Z,3.20
2022-10-22T22:50:08.759Z,3.53
2022-10-22T22:52:57.668Z,2.80
2022-10-22T22:55:44.998Z,2.87
2022-10-22T22:58:32.437Z,3.15
2022-10-22T23:01:22.494Z,2.95
2022-10-22T23:04:13.306Z,3.17
2022-10-22T23:07:00.726Z,2.90
2022-10-22T23:09:49.489Z,2.60
2022-10-22T23:12:36.484Z,2.88
2022-10-22T23:15:23.655Z,2.83
2022-10-22T23:18:11.192Z,3.08
2022-10-22T23:20:58.735Z,2.60
2022-10-22T23:23:47.297Z,3.13
2022-10-22T23:26:38.328Z,2.75
2022-10-22T23:29:27.792Z,3.22
2022-10-22T23:32:15.711Z,3.55
2022-10-22T23:35:03.097Z,3.15
2022-10-22T23:37:50.590Z,2.80
2022-10-22T23:40:37.791Z,3.25
2022-10-22T23:43:27.075Z,2.45
2022-10-22T23:46:15.294Z,2.80
2022-10-22T23:49:03.149Z,2.78
2022-10-22T23:51:50.578Z,2.43
2022-10-22T23:54:38.015Z,2.50
2022-10-22T23:57:25.769Z,2.90
